BTT - Bettles

Pirep is a free, collaborative database of all public and private airports located within the United States. All pilots are welcome to contribute, edit, and improve any airport they have local knowledge about, no registration required.
Are you familiar with this airport? Help out other pilots by adding your local knowledge.
Uploaded photos will be licensed under a CC BY-SA 4.0 license. Please only upload photos you have the rights to use.
Tags
Public
Undocu­mented
METAR / TAF
Webcam
Edit Tags
Food
Camping
Lodging
Car Rental
Bicycles
Swimming
Golfing
Fishing
Hot Springs
Museum
Flying Clubs
Airpark
Upcoming Events
No upcoming events. Is anything happening here soon?
*
*
*

Where exactly on/near the airport is this event taking place?

Is there a webpage with more information for this event?

Who should be contacted for more information?

What is this event all about?

Repeat every
Description
Transient Parking
Fuel Location
Landing & Tie-down Fees
Crew Car Availability
Flying Clubs
WiFi Access
Airport Statistics
Location: Bettles, AK
Elevation: 647ft
Sectional: Fairbanks
Activation date: Jan 1949
Fuel: 100LL, A1+ (prices)
Runway 02/20: 5,190ft
Runway 14W/32W: 4,100ft
Access: Open to the public
Current Weather — VFR
  • Weather data is strictly informational and not for flight planning purposes.
  • METAR
    2024-05-24 16:53:00 AKDT
    Ceiling Wind Temperature Dewpoint Weather Visbility
    14,000ft 310° @ 6kt 57°F 39°F N/A 10SM
    Clouds: Few @ 3,100ft, Scattered @ 5,500ft, Overcast @ 14,000ft
    Raw: PABT 250053Z 31006KT 10SM FEW031 SCT055 OVC140 14/04 A2963 RMK SLP040 OVC IS PR THIN T01440039
  • TAF
    2024-05-24 16:00:00 AKDT – 2024-05-25 02:00:00 AKDT
    Ceiling Wind Weather Visbility
    5,000ft 10° @ 6kt Showers in vicinity 6SM
    Clouds: Scattered @ 2,500ft, Broken @ 5,000ft, Broken @ 9,000ft
    Raw: PABT 242342Z 2500/2524 01006KT P6SM VCSH SCT025 BKN050 BKN090 FM251000 VRB03KT 3SM BR BKN015 FM251600 02006KT P6SM SCT015
  • TAF
    2024-05-25 02:00:00 AKDT – 2024-05-25 08:00:00 AKDT
    Ceiling Wind Weather Visbility
    1,500ft Variable Mist 3SM
    Clouds: Broken @ 1,500ft
    Raw: PABT 242342Z 2500/2524 01006KT P6SM VCSH SCT025 BKN050 BKN090 FM251000 VRB03KT 3SM BR BKN015 FM251600 02006KT P6SM SCT015
  • TAF
    2024-05-25 08:00:00 AKDT – 2024-05-25 16:00:00 AKDT
    Ceiling Wind Weather Visbility
    Sky clear 20° @ 6kt N/A 6SM
    Clouds: Scattered @ 1,500ft
    Raw: PABT 242342Z 2500/2524 01006KT P6SM VCSH SCT025 BKN050 BKN090 FM251000 VRB03KT 3SM BR BKN015 FM251600 02006KT P6SM SCT015
Click/tap to add an annotation marker to the map
Direct links to live image URLs will be displayed inline on this page. URLs to separate webpages will be linked to.
URL:
Direct links to live image URLs will be displayed inline on this page. URLs to separate webpages will be linked to.
URL:
Remarks
  • Actvt sr-ss - ctaf.
  • Winter snow removal - ctaf.
  • Wx obs avbl - bettles wx on ctaf or 907-692-5533.
  • Rwy cond unmnt; rcmd visual insp prior to lndg.
  • Wx camera avbl on internet at https://weathercams.faa.gov
  • Cold temperature airport. altitude correction required at or below -45c.
  • Float plane ops 2 mi se.
  • Fuel h24; unleaded avbl - 121.7/130.1/907-692-5111/907-692-5444.
Comments
Leave a comment What was your experience like at this airport?